sensor_id;sensor_type;location;lat;lon;timestamp;P1;durP1;ratioP1;P2;durP2;ratioP2
56136;SDS011;42008;52.934;5.884;2023-04-15T00:00:36;13.00;;;4.77;;
56136;SDS011;42008;52.934;5.884;2023-04-15T00:03:02;13.87;;;5.17;;
56136;SDS011;42008;52.934;5.884;2023-04-15T00:05:29;15.03;;;5.33;;
56136;SDS011;42008;52.934;5.884;2023-04-15T00:07:55;10.97;;;5.37;;
56136;SDS011;42008;52.934;5.884;2023-04-15T00:10:21;14.77;;;5.30;;
56136;SDS011;42008;52.934;5.884;2023-04-15T00:12:47;10.80;;;4.60;;
56136;SDS011;42008;52.934;5.884;2023-04-15T00:15:13;13.53;;;5.30;;
56136;SDS011;42008;52.934;5.884;2023-04-15T00:17:39;17.20;;;5.90;;
56136;SDS011;42008;52.934;5.884;2023-04-15T00:20:05;13.23;;;5.30;;
56136;SDS011;42008;52.934;5.884;2023-04-15T00:22:31;13.90;;;5.40;;
56136;SDS011;42008;52.934;5.884;2023-04-15T00:24:57;13.67;;;5.57;;
56136;SDS011;42008;52.934;5.884;2023-04-15T00:27:22;13.23;;;5.80;;
56136;SDS011;42008;52.934;5.884;2023-04-15T00:29:48;14.03;;;5.73;;
56136;SDS011;42008;52.934;5.884;2023-04-15T00:32:14;11.33;;;5.40;;
56136;SDS011;42008;52.934;5.884;2023-04-15T00:34:40;10.53;;;5.00;;
56136;SDS011;42008;52.934;5.884;2023-04-15T00:37:06;12.80;;;5.63;;
56136;SDS011;42008;52.934;5.884;2023-04-15T00:39:33;14.60;;;5.97;;
56136;SDS011;42008;52.934;5.884;2023-04-15T00:41:59;14.77;;;7.07;;
56136;SDS011;42008;52.934;5.884;2023-04-15T00:44:25;17.47;;;6.23;;
56136;SDS011;42008;52.934;5.884;2023-04-15T00:46:51;15.17;;;6.43;;
56136;SDS011;42008;52.934;5.884;2023-04-15T00:49:16;11.50;;;6.10;;
56136;SDS011;42008;52.934;5.884;2023-04-15T00:51:43;13.43;;;6.07;;
56136;SDS011;42008;52.934;5.884;2023-04-15T00:54:09;15.10;;;6.00;;
56136;SDS011;42008;52.934;5.884;2023-04-15T00:56:35;11.77;;;6.20;;
56136;SDS011;42008;52.934;5.884;2023-04-15T00:59:03;16.03;;;6.40;;
56136;SDS011;42008;52.934;5.884;2023-04-15T01:01:30;14.50;;;6.47;;
56136;SDS011;42008;52.934;5.884;2023-04-15T01:03:56;14.37;;;6.70;;
56136;SDS011;42008;52.934;5.884;2023-04-15T01:06:24;19.63;;;6.83;;
56136;SDS011;42008;52.934;5.884;2023-04-15T01:08:51;13.50;;;6.50;;
56136;SDS011;42008;52.934;5.884;2023-04-15T01:11:18;12.73;;;6.37;;
56136;SDS011;42008;52.934;5.884;2023-04-15T01:13:45;12.17;;;6.87;;
56136;SDS011;42008;52.934;5.884;2023-04-15T01:16:10;17.60;;;6.63;;
56136;SDS011;42008;52.934;5.884;2023-04-15T01:18:37;16.03;;;6.73;;
56136;SDS011;42008;52.934;5.884;2023-04-15T01:21:03;11.63;;;6.27;;
56136;SDS011;42008;52.934;5.884;2023-04-15T01:23:31;14.50;;;6.67;;
56136;SDS011;42008;52.934;5.884;2023-04-15T01:25:58;15.87;;;7.57;;
56136;SDS011;42008;52.934;5.884;2023-04-15T01:28:24;15.50;;;7.60;;
56136;SDS011;42008;52.934;5.884;2023-04-15T01:30:50;17.00;;;8.00;;
56136;SDS011;42008;52.934;5.884;2023-04-15T01:33:33;17.23;;;7.73;;
56136;SDS011;42008;52.934;5.884;2023-04-15T01:35:59;16.30;;;7.63;;
56136;SDS011;42008;52.934;5.884;2023-04-15T01:38:25;15.93;;;7.93;;
56136;SDS011;42008;52.934;5.884;2023-04-15T01:40:52;17.07;;;7.53;;
56136;SDS011;42008;52.934;5.884;2023-04-15T01:43:17;16.57;;;8.33;;
56136;SDS011;42008;52.934;5.884;2023-04-15T01:45:43;22.07;;;8.87;;
56136;SDS011;42008;52.934;5.884;2023-04-15T01:48:09;19.43;;;8.47;;
56136;SDS011;42008;52.934;5.884;2023-04-15T01:50:35;19.53;;;8.93;;
56136;SDS011;42008;52.934;5.884;2023-04-15T01:53:02;16.57;;;9.03;;
56136;SDS011;42008;52.934;5.884;2023-04-15T01:55:28;20.23;;;9.37;;
56136;SDS011;42008;52.934;5.884;2023-04-15T01:57:54;18.90;;;8.87;;
56136;SDS011;42008;52.934;5.884;2023-04-15T02:00:20;18.40;;;8.77;;
56136;SDS011;42008;52.934;5.884;2023-04-15T02:02:47;14.17;;;8.33;;
56136;SDS011;42008;52.934;5.884;2023-04-15T02:05:12;18.00;;;8.97;;
56136;SDS011;42008;52.934;5.884;2023-04-15T02:07:38;16.50;;;8.57;;
56136;SDS011;42008;52.934;5.884;2023-04-15T02:10:04;17.33;;;9.20;;
56136;SDS011;42008;52.934;5.884;2023-04-15T02:12:30;16.37;;;8.80;;
56136;SDS011;42008;52.934;5.884;2023-04-15T02:14:55;20.33;;;9.10;;
56136;SDS011;42008;52.934;5.884;2023-04-15T02:17:21;15.70;;;9.50;;
56136;SDS011;42008;52.934;5.884;2023-04-15T02:19:47;20.83;;;10.30;;
56136;SDS011;42008;52.934;5.884;2023-04-15T02:22:12;19.43;;;10.23;;
56136;SDS011;42008;52.934;5.884;2023-04-15T02:24:42;19.00;;;10.03;;
56136;SDS011;42008;52.934;5.884;2023-04-15T02:27:09;22.77;;;10.43;;
56136;SDS011;42008;52.934;5.884;2023-04-15T02:29:35;20.47;;;10.20;;
56136;SDS011;42008;52.934;5.884;2023-04-15T02:32:01;23.50;;;9.80;;
56136;SDS011;42008;52.934;5.884;2023-04-15T02:34:26;18.70;;;10.00;;
56136;SDS011;42008;52.934;5.884;2023-04-15T02:36:52;18.43;;;10.80;;
56136;SDS011;42008;52.934;5.884;2023-04-15T02:39:21;17.60;;;10.73;;
56136;SDS011;42008;52.934;5.884;2023-04-15T02:41:47;17.87;;;10.50;;
56136;SDS011;42008;52.934;5.884;2023-04-15T02:44:16;19.70;;;10.93;;
56136;SDS011;42008;52.934;5.884;2023-04-15T02:46:46;18.27;;;10.93;;
56136;SDS011;42008;52.934;5.884;2023-04-15T02:49:16;18.50;;;10.63;;
56136;SDS011;42008;52.934;5.884;2023-04-15T02:51:42;20.57;;;11.20;;
56136;SDS011;42008;52.934;5.884;2023-04-15T02:54:11;20.00;;;12.03;;
56136;SDS011;42008;52.934;5.884;2023-04-15T02:56:37;23.93;;;13.03;;
56136;SDS011;42008;52.934;5.884;2023-04-15T02:59:02;20.23;;;11.93;;
56136;SDS011;42008;52.934;5.884;2023-04-15T03:01:28;21.73;;;12.07;;
56136;SDS011;42008;52.934;5.884;2023-04-15T03:03:54;19.00;;;12.40;;
56136;SDS011;42008;52.934;5.884;2023-04-15T03:06:20;23.10;;;13.53;;
56136;SDS011;42008;52.934;5.884;2023-04-15T03:08:45;21.60;;;12.87;;
56136;SDS011;42008;52.934;5.884;2023-04-15T03:11:11;22.20;;;12.63;;
56136;SDS011;42008;52.934;5.884;2023-04-15T03:13:38;25.10;;;13.53;;
56136;SDS011;42008;52.934;5.884;2023-04-15T03:16:05;24.33;;;13.30;;
56136;SDS011;42008;52.934;5.884;2023-04-15T03:18:31;21.77;;;13.67;;
56136;SDS011;42008;52.934;5.884;2023-04-15T03:20:57;24.43;;;13.40;;
56136;SDS011;42008;52.934;5.884;2023-04-15T03:23:22;23.47;;;14.37;;
56136;SDS011;42008;52.934;5.884;2023-04-15T03:25:48;20.93;;;13.07;;
56136;SDS011;42008;52.934;5.884;2023-04-15T03:28:13;21.93;;;13.73;;
56136;SDS011;42008;52.934;5.884;2023-04-15T03:30:39;24.27;;;14.37;;
56136;SDS011;42008;52.934;5.884;2023-04-15T03:33:04;20.47;;;13.70;;
56136;SDS011;42008;52.934;5.884;2023-04-15T03:35:30;27.90;;;14.27;;
56136;SDS011;42008;52.934;5.884;2023-04-15T03:37:56;24.47;;;14.23;;
56136;SDS011;42008;52.934;5.884;2023-04-15T03:40:22;22.17;;;13.77;;
56136;SDS011;42008;52.934;5.884;2023-04-15T03:42:47;22.57;;;14.43;;
56136;SDS011;42008;52.934;5.884;2023-04-15T03:45:13;23.13;;;13.60;;
56136;SDS011;42008;52.934;5.884;2023-04-15T03:47:38;27.03;;;15.87;;
56136;SDS011;42008;52.934;5.884;2023-04-15T03:50:04;22.63;;;15.10;;
56136;SDS011;42008;52.934;5.884;2023-04-15T03:52:30;22.20;;;14.80;;
56136;SDS011;42008;52.934;5.884;2023-04-15T03:54:55;22.57;;;14.93;;
56136;SDS011;42008;52.934;5.884;2023-04-15T03:57:21;31.73;;;16.70;;
56136;SDS011;42008;52.934;5.884;2023-04-15T03:59:47;24.30;;;15.00;;
56136;SDS011;42008;52.934;5.884;2023-04-15T04:02:12;26.17;;;16.27;;
56136;SDS011;42008;52.934;5.884;2023-04-15T04:04:38;25.57;;;16.17;;
56136;SDS011;42008;52.934;5.884;2023-04-15T04:07:03;24.10;;;16.10;;
56136;SDS011;42008;52.934;5.884;2023-04-15T04:09:29;24.77;;;14.90;;
56136;SDS011;42008;52.934;5.884;2023-04-15T04:11:54;26.63;;;17.17;;
56136;SDS011;42008;52.934;5.884;2023-04-15T04:14:20;24.47;;;16.00;;
56136;SDS011;42008;52.934;5.884;2023-04-15T04:16:50;24.17;;;15.80;;
56136;SDS011;42008;52.934;5.884;2023-04-15T04:19:16;23.50;;;16.30;;
56136;SDS011;42008;52.934;5.884;2023-04-15T04:21:43;23.07;;;15.20;;
56136;SDS011;42008;52.934;5.884;2023-04-15T04:24:09;22.23;;;14.63;;
56136;SDS011;42008;52.934;5.884;2023-04-15T04:26:35;30.77;;;14.73;;
56136;SDS011;42008;52.934;5.884;2023-04-15T04:29:01;20.53;;;13.90;;
56136;SDS011;42008;52.934;5.884;2023-04-15T04:31:26;25.70;;;16.63;;
56136;SDS011;42008;52.934;5.884;2023-04-15T04:33:52;22.87;;;14.53;;
56136;SDS011;42008;52.934;5.884;2023-04-15T04:36:17;23.33;;;15.10;;
56136;SDS011;42008;52.934;5.884;2023-04-15T04:38:43;25.97;;;15.63;;
56136;SDS011;42008;52.934;5.884;2023-04-15T04:41:09;22.73;;;14.47;;
56136;SDS011;42008;52.934;5.884;2023-04-15T04:43:34;25.40;;;15.60;;
56136;SDS011;42008;52.934;5.884;2023-04-15T04:46:00;24.67;;;14.70;;
56136;SDS011;42008;52.934;5.884;2023-04-15T04:48:25;22.50;;;14.60;;
56136;SDS011;42008;52.934;5.884;2023-04-15T04:50:51;22.80;;;15.80;;
56136;SDS011;42008;52.934;5.884;2023-04-15T04:53:17;24.30;;;15.00;;
56136;SDS011;42008;52.934;5.884;2023-04-15T04:55:42;24.43;;;15.30;;
56136;SDS011;42008;52.934;5.884;2023-04-15T04:58:08;23.80;;;14.97;;
56136;SDS011;42008;52.934;5.884;2023-04-15T05:00:33;25.83;;;15.73;;
56136;SDS011;42008;52.934;5.884;2023-04-15T05:02:59;25.30;;;14.90;;
56136;SDS011;42008;52.934;5.884;2023-04-15T05:05:25;22.57;;;14.60;;
56136;SDS011;42008;52.934;5.884;2023-04-15T05:07:51;25.67;;;15.00;;
56136;SDS011;42008;52.934;5.884;2023-04-15T05:10:16;22.20;;;15.10;;
56136;SDS011;42008;52.934;5.884;2023-04-15T05:12:42;22.57;;;15.30;;
56136;SDS011;42008;52.934;5.884;2023-04-15T05:15:08;23.47;;;15.07;;
56136;SDS011;42008;52.934;5.884;2023-04-15T05:17:34;24.87;;;16.17;;
56136;SDS011;42008;52.934;5.884;2023-04-15T05:20:00;23.37;;;16.30;;
56136;SDS011;42008;52.934;5.884;2023-04-15T05:22:26;27.63;;;16.40;;
56136;SDS011;42008;52.934;5.884;2023-04-15T05:24:52;26.03;;;15.97;;
56136;SDS011;42008;52.934;5.884;2023-04-15T05:27:17;24.77;;;16.70;;
56136;SDS011;42008;52.934;5.884;2023-04-15T05:29:43;26.17;;;16.93;;
56136;SDS011;42008;52.934;5.884;2023-04-15T05:32:09;23.57;;;17.17;;
56136;SDS011;42008;52.934;5.884;2023-04-15T05:34:35;28.37;;;17.63;;
56136;SDS011;42008;52.934;5.884;2023-04-15T05:37:01;29.80;;;19.13;;
56136;SDS011;42008;52.934;5.884;2023-04-15T05:39:26;31.50;;;19.40;;
56136;SDS011;42008;52.934;5.884;2023-04-15T05:41:52;30.20;;;19.30;;
56136;SDS011;42008;52.934;5.884;2023-04-15T05:44:18;29.80;;;20.23;;
56136;SDS011;42008;52.934;5.884;2023-04-15T05:46:44;32.10;;;20.43;;
56136;SDS011;42008;52.934;5.884;2023-04-15T05:49:09;30.83;;;20.33;;
56136;SDS011;42008;52.934;5.884;2023-04-15T05:51:35;31.40;;;19.57;;
56136;SDS011;42008;52.934;5.884;2023-04-15T05:54:00;28.50;;;18.33;;
56136;SDS011;42008;52.934;5.884;2023-04-15T05:56:26;29.13;;;20.03;;
56136;SDS011;42008;52.934;5.884;2023-04-15T05:58:52;28.93;;;19.43;;
56136;SDS011;42008;52.934;5.884;2023-04-15T06:01:17;29.00;;;19.80;;
56136;SDS011;42008;52.934;5.884;2023-04-15T06:03:43;27.90;;;18.70;;
56136;SDS011;42008;52.934;5.884;2023-04-15T06:06:08;25.87;;;19.40;;
56136;SDS011;42008;52.934;5.884;2023-04-15T06:08:34;26.87;;;19.17;;
56136;SDS011;42008;52.934;5.884;2023-04-15T06:11:00;30.20;;;19.80;;
56136;SDS011;42008;52.934;5.884;2023-04-15T06:13:25;26.67;;;18.87;;
56136;SDS011;42008;52.934;5.884;2023-04-15T06:15:51;28.17;;;18.23;;
56136;SDS011;42008;52.934;5.884;2023-04-15T06:18:17;24.63;;;16.87;;
56136;SDS011;42008;52.934;5.884;2023-04-15T06:20:44;22.17;;;16.23;;
56136;SDS011;42008;52.934;5.884;2023-04-15T06:23:10;21.47;;;15.30;;
56136;SDS011;42008;52.934;5.884;2023-04-15T06:25:36;22.90;;;14.10;;
56136;SDS011;42008;52.934;5.884;2023-04-15T06:28:01;17.10;;;13.80;;
56136;SDS011;42008;52.934;5.884;2023-04-15T06:30:27;17.90;;;12.63;;
56136;SDS011;42008;52.934;5.884;2023-04-15T06:32:53;15.80;;;11.57;;
56136;SDS011;42008;52.934;5.884;2023-04-15T06:35:20;18.17;;;13.17;;
56136;SDS011;42008;52.934;5.884;2023-04-15T06:37:46;16.77;;;12.43;;
56136;SDS011;42008;52.934;5.884;2023-04-15T06:40:11;17.20;;;12.83;;
56136;SDS011;42008;52.934;5.884;2023-04-15T06:42:37;19.50;;;13.63;;
56136;SDS011;42008;52.934;5.884;2023-04-15T06:45:03;20.40;;;14.20;;
56136;SDS011;42008;52.934;5.884;2023-04-15T06:47:29;17.63;;;13.03;;
56136;SDS011;42008;52.934;5.884;2023-04-15T06:49:54;21.57;;;13.70;;
56136;SDS011;42008;52.934;5.884;2023-04-15T06:52:20;17.30;;;12.37;;
56136;SDS011;42008;52.934;5.884;2023-04-15T06:54:45;16.07;;;11.90;;
56136;SDS011;42008;52.934;5.884;2023-04-15T06:57:11;16.77;;;12.73;;
56136;SDS011;42008;52.934;5.884;2023-04-15T06:59:37;18.83;;;13.50;;
56136;SDS011;42008;52.934;5.884;2023-04-15T07:02:02;17.83;;;13.63;;
56136;SDS011;42008;52.934;5.884;2023-04-15T07:04:28;16.60;;;12.90;;
56136;SDS011;42008;52.934;5.884;2023-04-15T07:06:54;16.93;;;12.40;;
56136;SDS011;42008;52.934;5.884;2023-04-15T07:09:20;18.07;;;13.40;;
56136;SDS011;42008;52.934;5.884;2023-04-15T07:11:46;17.27;;;13.33;;
56136;SDS011;42008;52.934;5.884;2023-04-15T07:14:12;17.63;;;13.73;;
56136;SDS011;42008;52.934;5.884;2023-04-15T07:16:38;18.63;;;14.00;;
56136;SDS011;42008;52.934;5.884;2023-04-15T07:19:03;16.40;;;13.13;;
56136;SDS011;42008;52.934;5.884;2023-04-15T07:21:29;15.60;;;12.13;;
56136;SDS011;42008;52.934;5.884;2023-04-15T07:23:55;16.13;;;12.20;;
56136;SDS011;42008;52.934;5.884;2023-04-15T07:26:21;19.37;;;12.70;;
56136;SDS011;42008;52.934;5.884;2023-04-15T07:28:47;13.23;;;9.10;;
56136;SDS011;42008;52.934;5.884;2023-04-15T07:31:13;13.70;;;10.20;;
56136;SDS011;42008;52.934;5.884;2023-04-15T07:33:38;14.50;;;10.50;;
56136;SDS011;42008;52.934;5.884;2023-04-15T07:36:04;13.30;;;10.27;;
56136;SDS011;42008;52.934;5.884;2023-04-15T07:38:30;11.07;;;8.93;;
56136;SDS011;42008;52.934;5.884;2023-04-15T07:40:55;12.10;;;8.17;;
56136;SDS011;42008;52.934;5.884;2023-04-15T07:43:22;11.37;;;8.10;;
56136;SDS011;42008;52.934;5.884;2023-04-15T07:45:47;9.33;;;7.50;;
56136;SDS011;42008;52.934;5.884;2023-04-15T07:48:13;9.50;;;7.97;;
56136;SDS011;42008;52.934;5.884;2023-04-15T07:50:38;12.07;;;7.90;;
56136;SDS011;42008;52.934;5.884;2023-04-15T07:53:04;10.57;;;7.73;;
56136;SDS011;42008;52.934;5.884;2023-04-15T07:55:31;15.13;;;8.40;;
56136;SDS011;42008;52.934;5.884;2023-04-15T07:57:56;9.33;;;7.33;;
56136;SDS011;42008;52.934;5.884;2023-04-15T08:00:22;11.37;;;7.73;;
56136;SDS011;42008;52.934;5.884;2023-04-15T08:02:48;11.20;;;8.53;;
56136;SDS011;42008;52.934;5.884;2023-04-15T08:05:13;11.83;;;8.80;;
56136;SDS011;42008;52.934;5.884;2023-04-15T08:07:39;11.50;;;8.60;;
56136;SDS011;42008;52.934;5.884;2023-04-15T08:10:05;8.70;;;6.90;;
56136;SDS011;42008;52.934;5.884;2023-04-15T08:12:32;12.50;;;7.60;;
56136;SDS011;42008;52.934;5.884;2023-04-15T08:14:57;11.53;;;8.33;;
56136;SDS011;42008;52.934;5.884;2023-04-15T08:17:23;11.03;;;7.83;;
56136;SDS011;42008;52.934;5.884;2023-04-15T08:19:49;10.40;;;7.53;;
56136;SDS011;42008;52.934;5.884;2023-04-15T08:22:15;9.87;;;7.87;;
56136;SDS011;42008;52.934;5.884;2023-04-15T08:24:41;10.97;;;7.40;;
56136;SDS011;42008;52.934;5.884;2023-04-15T08:27:07;13.33;;;7.37;;
56136;SDS011;42008;52.934;5.884;2023-04-15T08:29:33;8.27;;;5.93;;
56136;SDS011;42008;52.934;5.884;2023-04-15T08:31:59;10.23;;;6.67;;
56136;SDS011;42008;52.934;5.884;2023-04-15T08:34:28;8.63;;;6.03;;
56136;SDS011;42008;52.934;5.884;2023-04-15T08:36:54;8.73;;;6.00;;
56136;SDS011;42008;52.934;5.884;2023-04-15T08:39:19;7.77;;;4.17;;
56136;SDS011;42008;52.934;5.884;2023-04-15T08:41:46;5.67;;;4.13;;
56136;SDS011;42008;52.934;5.884;2023-04-15T08:44:15;8.37;;;4.33;;
56136;SDS011;42008;52.934;5.884;2023-04-15T08:46:42;6.73;;;3.80;;
56136;SDS011;42008;52.934;5.884;2023-04-15T08:49:09;7.00;;;4.67;;
56136;SDS011;42008;52.934;5.884;2023-04-15T08:51:37;6.97;;;4.47;;
56136;SDS011;42008;52.934;5.884;2023-04-15T08:54:10;7.10;;;4.30;;
56136;SDS011;42008;52.934;5.884;2023-04-15T08:56:36;5.97;;;4.20;;
56136;SDS011;42008;52.934;5.884;2023-04-15T08:59:03;6.43;;;4.30;;
56136;SDS011;42008;52.934;5.884;2023-04-15T09:01:29;5.73;;;3.63;;
56136;SDS011;42008;52.934;5.884;2023-04-15T09:03:56;5.63;;;3.70;;
56136;SDS011;42008;52.934;5.884;2023-04-15T09:06:22;6.60;;;3.50;;
56136;SDS011;42008;52.934;5.884;2023-04-15T09:08:49;9.53;;;4.03;;
56136;SDS011;42008;52.934;5.884;2023-04-15T09:11:16;8.80;;;4.30;;
56136;SDS011;42008;52.934;5.884;2023-04-15T09:13:44;4.73;;;3.53;;
56136;SDS011;42008;52.934;5.884;2023-04-15T09:16:10;6.07;;;3.90;;
56136;SDS011;42008;52.934;5.884;2023-04-15T09:18:37;6.10;;;3.90;;
56136;SDS011;42008;52.934;5.884;2023-04-15T09:21:13;9.87;;;4.10;;
56136;SDS011;42008;52.934;5.884;2023-04-15T09:23:43;8.10;;;4.80;;
56136;SDS011;42008;52.934;5.884;2023-04-15T09:29:04;9.20;;;4.10;;
56136;SDS011;42008;52.934;5.884;2023-04-15T09:31:31;7.03;;;4.60;;
56136;SDS011;42008;52.934;5.884;2023-04-15T09:33:57;7.27;;;4.57;;
56136;SDS011;42008;52.934;5.884;2023-04-15T09:36:22;7.97;;;4.50;;
56136;SDS011;42008;52.934;5.884;2023-04-15T09:38:55;7.10;;;4.10;;
56136;SDS011;42008;52.934;5.884;2023-04-15T09:41:22;10.90;;;4.60;;
56136;SDS011;42008;52.934;5.884;2023-04-15T09:43:49;8.43;;;4.23;;
56136;SDS011;42008;52.934;5.884;2023-04-15T09:46:15;8.33;;;4.40;;
56136;SDS011;42008;52.934;5.884;2023-04-15T09:48:40;6.30;;;3.20;;
56136;SDS011;42008;52.934;5.884;2023-04-15T09:51:06;7.17;;;3.50;;
56136;SDS011;42008;52.934;5.884;2023-04-15T09:53:32;6.50;;;3.27;;
56136;SDS011;42008;52.934;5.884;2023-04-15T09:55:59;8.73;;;3.10;;
56136;SDS011;42008;52.934;5.884;2023-04-15T09:58:30;7.23;;;3.37;;
56136;SDS011;42008;52.934;5.884;2023-04-15T10:01:02;9.10;;;3.87;;
56136;SDS011;42008;52.934;5.884;2023-04-15T10:03:33;5.73;;;2.83;;
56136;SDS011;42008;52.934;5.884;2023-04-15T10:06:00;6.23;;;3.33;;
56136;SDS011;42008;52.934;5.884;2023-04-15T10:08:33;5.53;;;2.97;;
56136;SDS011;42008;52.934;5.884;2023-04-15T10:11:00;8.48;;;3.40;;
56136;SDS011;42008;52.934;5.884;2023-04-15T10:13:28;6.13;;;3.30;;
56136;SDS011;42008;52.934;5.884;2023-04-15T10:15:58;7.37;;;3.03;;
56136;SDS011;42008;52.934;5.884;2023-04-15T10:18:31;7.23;;;3.07;;
56136;SDS011;42008;52.934;5.884;2023-04-15T10:20:59;6.83;;;3.03;;
56136;SDS011;42008;52.934;5.884;2023-04-15T10:23:25;4.77;;;2.70;;
56136;SDS011;42008;52.934;5.884;2023-04-15T10:25:52;4.77;;;1.97;;
56136;SDS011;42008;52.934;5.884;2023-04-15T10:28:18;4.47;;;2.17;;
56136;SDS011;42008;52.934;5.884;2023-04-15T10:30:46;5.83;;;2.37;;
56136;SDS011;42008;52.934;5.884;2023-04-15T10:33:13;4.30;;;1.90;;
56136;SDS011;42008;52.934;5.884;2023-04-15T10:35:41;4.87;;;1.90;;
56136;SDS011;42008;52.934;5.884;2023-04-15T10:46:17;4.70;;;1.70;;
56136;SDS011;42008;52.934;5.884;2023-04-15T10:48:48;5.27;;;1.80;;
56136;SDS011;42008;52.934;5.884;2023-04-15T10:51:15;5.23;;;1.80;;
56136;SDS011;42008;52.934;5.884;2023-04-15T10:53:41;5.77;;;1.47;;
56136;SDS011;42008;52.934;5.884;2023-04-15T10:56:07;8.27;;;1.77;;
56136;SDS011;42008;52.934;5.884;2023-04-15T10:58:40;3.27;;;1.50;;
56136;SDS011;42008;52.934;5.884;2023-04-15T11:01:07;6.27;;;1.70;;
56136;SDS011;42008;52.934;5.884;2023-04-15T11:03:35;5.67;;;1.90;;
56136;SDS011;42008;52.934;5.884;2023-04-15T11:06:05;4.03;;;1.65;;
56136;SDS011;42008;52.934;5.884;2023-04-15T11:11:50;4.32;;;1.52;;
56136;SDS011;42008;52.934;5.884;2023-04-15T11:14:27;3.67;;;1.67;;
56136;SDS011;42008;52.934;5.884;2023-04-15T11:16:52;6.40;;;1.77;;
56136;SDS011;42008;52.934;5.884;2023-04-15T11:19:18;4.20;;;1.67;;
56136;SDS011;42008;52.934;5.884;2023-04-15T11:21:43;4.43;;;1.60;;
56136;SDS011;42008;52.934;5.884;2023-04-15T11:24:09;6.40;;;1.90;;
56136;SDS011;42008;52.934;5.884;2023-04-15T11:26:35;3.47;;;1.70;;
56136;SDS011;42008;52.934;5.884;2023-04-15T11:29:00;6.27;;;1.60;;
56136;SDS011;42008;52.934;5.884;2023-04-15T11:31:27;3.30;;;1.80;;
56136;SDS011;42008;52.934;5.884;2023-04-15T11:33:57;3.43;;;1.60;;
56136;SDS011;42008;52.934;5.884;2023-04-15T11:36:28;5.50;;;1.80;;
56136;SDS011;42008;52.934;5.884;2023-04-15T11:38:56;5.97;;;1.80;;
56136;SDS011;42008;52.934;5.884;2023-04-15T11:41:23;6.97;;;2.30;;
56136;SDS011;42008;52.934;5.884;2023-04-15T11:43:49;4.03;;;1.80;;
56136;SDS011;42008;52.934;5.884;2023-04-15T11:46:16;5.30;;;1.73;;
56136;SDS011;42008;52.934;5.884;2023-04-15T11:48:42;6.87;;;2.00;;
56136;SDS011;42008;52.934;5.884;2023-04-15T11:51:09;6.57;;;1.73;;
56136;SDS011;42008;52.934;5.884;2023-04-15T11:53:36;5.97;;;2.00;;
56136;SDS011;42008;52.934;5.884;2023-04-15T11:56:09;5.83;;;1.47;;
56136;SDS011;42008;52.934;5.884;2023-04-15T11:58:40;5.78;;;1.60;;
56136;SDS011;42008;52.934;5.884;2023-04-15T12:01:07;5.40;;;1.83;;
56136;SDS011;42008;52.934;5.884;2023-04-15T12:08:52;7.40;;;2.20;;
56136;SDS011;42008;52.934;5.884;2023-04-15T12:11:21;6.13;;;2.20;;
56136;SDS011;42008;52.934;5.884;2023-04-15T12:14:03;10.27;;;2.63;;
56136;SDS011;42008;52.934;5.884;2023-04-15T12:16:30;10.10;;;2.37;;
56136;SDS011;42008;52.934;5.884;2023-04-15T12:19:03;11.10;;;3.37;;
56136;SDS011;42008;52.934;5.884;2023-04-15T12:21:35;7.77;;;2.60;;
56136;SDS011;42008;52.934;5.884;2023-04-15T12:24:03;7.67;;;2.63;;
56136;SDS011;42008;52.934;5.884;2023-04-15T12:26:34;9.23;;;2.40;;
56136;SDS011;42008;52.934;5.884;2023-04-15T12:29:10;8.90;;;3.00;;
56136;SDS011;42008;52.934;5.884;2023-04-15T12:31:45;9.00;;;2.43;;
56136;SDS011;42008;52.934;5.884;2023-04-15T12:34:15;7.67;;;2.10;;
56136;SDS011;42008;52.934;5.884;2023-04-15T12:36:41;6.83;;;1.93;;
56136;SDS011;42008;52.934;5.884;2023-04-15T12:39:07;7.03;;;1.90;;
56136;SDS011;42008;52.934;5.884;2023-04-15T12:41:33;11.30;;;2.37;;
56136;SDS011;42008;52.934;5.884;2023-04-15T12:43:58;9.53;;;2.70;;
56136;SDS011;42008;52.934;5.884;2023-04-15T12:46:24;9.90;;;2.47;;
56136;SDS011;42008;52.934;5.884;2023-04-15T12:48:51;10.10;;;2.20;;
56136;SDS011;42008;52.934;5.884;2023-04-15T12:51:17;11.70;;;2.37;;
56136;SDS011;42008;52.934;5.884;2023-04-15T12:53:45;11.40;;;2.93;;
56136;SDS011;42008;52.934;5.884;2023-04-15T12:56:11;9.40;;;2.00;;
56136;SDS011;42008;52.934;5.884;2023-04-15T12:58:37;7.83;;;1.83;;
56136;SDS011;42008;52.934;5.884;2023-04-15T13:01:02;8.90;;;2.30;;
56136;SDS011;42008;52.934;5.884;2023-04-15T13:03:28;12.47;;;2.60;;
56136;SDS011;42008;52.934;5.884;2023-04-15T13:05:54;14.57;;;3.17;;
56136;SDS011;42008;52.934;5.884;2023-04-15T13:08:19;20.13;;;2.43;;
56136;SDS011;42008;52.934;5.884;2023-04-15T13:10:45;11.03;;;2.70;;
56136;SDS011;42008;52.934;5.884;2023-04-15T13:13:11;10.67;;;2.40;;
56136;SDS011;42008;52.934;5.884;2023-04-15T13:15:36;13.93;;;2.20;;
56136;SDS011;42008;52.934;5.884;2023-04-15T13:18:02;10.53;;;1.90;;
56136;SDS011;42008;52.934;5.884;2023-04-15T13:20:30;6.50;;;1.80;;
56136;SDS011;42008;52.934;5.884;2023-04-15T13:22:55;11.90;;;2.37;;
56136;SDS011;42008;52.934;5.884;2023-04-15T13:25:21;12.00;;;2.30;;
56136;SDS011;42008;52.934;5.884;2023-04-15T13:27:47;16.63;;;2.27;;
56136;SDS011;42008;52.934;5.884;2023-04-15T13:30:19;11.40;;;2.30;;
56136;SDS011;42008;52.934;5.884;2023-04-15T13:32:44;10.63;;;2.03;;
56136;SDS011;42008;52.934;5.884;2023-04-15T13:35:10;8.03;;;1.77;;
56136;SDS011;42008;52.934;5.884;2023-04-15T13:37:35;12.23;;;2.30;;
56136;SDS011;42008;52.934;5.884;2023-04-15T13:40:01;8.17;;;2.00;;
56136;SDS011;42008;52.934;5.884;2023-04-15T13:42:27;8.97;;;2.47;;
56136;SDS011;42008;52.934;5.884;2023-04-15T13:44:53;11.70;;;1.97;;
56136;SDS011;42008;52.934;5.884;2023-04-15T13:47:18;7.50;;;1.50;;
56136;SDS011;42008;52.934;5.884;2023-04-15T13:49:44;17.13;;;2.20;;
56136;SDS011;42008;52.934;5.884;2023-04-15T13:52:10;8.47;;;1.93;;
56136;SDS011;42008;52.934;5.884;2023-04-15T13:54:36;8.03;;;1.73;;
56136;SDS011;42008;52.934;5.884;2023-04-15T13:57:02;14.17;;;2.23;;
56136;SDS011;42008;52.934;5.884;2023-04-15T13:59:28;12.27;;;2.37;;
56136;SDS011;42008;52.934;5.884;2023-04-15T14:01:53;13.70;;;3.00;;
56136;SDS011;42008;52.934;5.884;2023-04-15T14:04:19;13.43;;;2.70;;
56136;SDS011;42008;52.934;5.884;2023-04-15T14:06:44;15.73;;;2.37;;
56136;SDS011;42008;52.934;5.884;2023-04-15T14:09:10;9.93;;;1.90;;
56136;SDS011;42008;52.934;5.884;2023-04-15T14:11:38;9.27;;;2.10;;
56136;SDS011;42008;52.934;5.884;2023-04-15T14:14:04;12.10;;;2.00;;
56136;SDS011;42008;52.934;5.884;2023-04-15T14:16:33;10.17;;;2.10;;
56136;SDS011;42008;52.934;5.884;2023-04-15T14:19:00;13.50;;;2.20;;
56136;SDS011;42008;52.934;5.884;2023-04-15T14:21:26;12.80;;;2.67;;
56136;SDS011;42008;52.934;5.884;2023-04-15T14:23:56;12.90;;;2.80;;
56136;SDS011;42008;52.934;5.884;2023-04-15T14:26:21;11.37;;;1.80;;
56136;SDS011;42008;52.934;5.884;2023-04-15T14:28:47;13.03;;;2.03;;
56136;SDS011;42008;52.934;5.884;2023-04-15T14:31:12;17.70;;;2.70;;
56136;SDS011;42008;52.934;5.884;2023-04-15T14:33:38;9.67;;;2.47;;
56136;SDS011;42008;52.934;5.884;2023-04-15T14:36:04;9.10;;;1.90;;
56136;SDS011;42008;52.934;5.884;2023-04-15T14:38:32;9.77;;;2.07;;
56136;SDS011;42008;52.934;5.884;2023-04-15T14:41:02;11.97;;;1.80;;
56136;SDS011;42008;52.934;5.884;2023-04-15T14:43:28;12.50;;;2.17;;
56136;SDS011;42008;52.934;5.884;2023-04-15T14:45:54;17.10;;;2.47;;
56136;SDS011;42008;52.934;5.884;2023-04-15T14:48:20;12.17;;;2.57;;